createdAt,value
2019-03-23T00:00:23.856Z,6.33
2019-03-23T00:02:54.217Z,5.87
2019-03-23T00:05:24.629Z,6.20
2019-03-23T00:07:54.889Z,6.10
2019-03-23T00:10:25.235Z,5.40
2019-03-23T00:12:55.627Z,5.57
2019-03-23T00:15:26.090Z,5.83
2019-03-23T00:17:56.476Z,5.67
2019-03-23T00:20:26.857Z,6.17
2019-03-23T00:22:57.293Z,5.90
2019-03-23T00:25:27.656Z,5.97
2019-03-23T00:27:58.037Z,6.00
2019-03-23T00:30:28.328Z,5.13
2019-03-23T00:32:58.619Z,5.43
2019-03-23T00:35:28.982Z,5.57
2019-03-23T00:37:59.385Z,5.00
2019-03-23T00:40:29.726Z,4.90
2019-03-23T00:43:00.128Z,4.90
2019-03-23T00:45:30.446Z,4.80
2019-03-23T00:48:00.833Z,4.93
2019-03-23T00:50:31.114Z,4.50
2019-03-23T00:53:01.410Z,4.00
2019-03-23T00:55:31.710Z,3.83
2019-03-23T00:58:02.197Z,3.40
2019-03-23T01:00:32.521Z,3.50
2019-03-23T01:03:02.791Z,3.43
2019-03-23T01:05:33.215Z,3.60
2019-03-23T01:08:03.622Z,3.50
2019-03-23T01:10:33.969Z,3.17
2019-03-23T01:13:04.198Z,3.57
2019-03-23T01:15:34.513Z,3.10
2019-03-23T01:18:04.895Z,2.83
2019-03-23T01:20:35.216Z,2.80
2019-03-23T01:23:05.706Z,3.13
2019-03-23T01:25:36.016Z,3.20
2019-03-23T01:28:06.469Z,2.93
2019-03-23T01:30:36.809Z,2.93
2019-03-23T01:33:07.302Z,2.93
2019-03-23T01:35:37.614Z,3.03
2019-03-23T01:38:07.873Z,2.60
2019-03-23T01:40:38.307Z,3.07
2019-03-23T01:43:08.552Z,2.87
2019-03-23T01:45:38.921Z,2.67
2019-03-23T01:48:09.329Z,2.80
2019-03-23T01:50:39.639Z,2.77
2019-03-23T01:53:09.929Z,2.60
2019-03-23T01:55:40.292Z,3.00
2019-03-23T01:58:10.608Z,2.77
2019-03-23T02:00:40.847Z,2.80
2019-03-23T02:03:11.190Z,2.80
2019-03-23T02:05:41.477Z,2.60
2019-03-23T02:08:11.959Z,2.40
2019-03-23T02:10:42.492Z,2.93
2019-03-23T02:13:12.864Z,2.70
2019-03-23T02:15:43.225Z,2.50
2019-03-23T02:18:13.641Z,2.73
2019-03-23T02:20:44.059Z,2.13
2019-03-23T02:23:14.431Z,2.37
2019-03-23T02:25:44.830Z,2.40
2019-03-23T02:28:15.166Z,2.60
2019-03-23T02:30:45.571Z,2.40
2019-03-23T02:33:15.911Z,2.60
2019-03-23T02:35:46.209Z,2.50
2019-03-23T02:38:16.559Z,2.30
2019-03-23T02:40:46.910Z,2.73
2019-03-23T02:43:17.300Z,2.30
2019-03-23T02:45:47.690Z,2.63
2019-03-23T02:48:18.001Z,2.57
2019-03-23T02:50:48.396Z,2.60
2019-03-23T02:53:18.751Z,2.50
2019-03-23T02:55:49.045Z,2.80
2019-03-23T02:58:19.446Z,2.70
2019-03-23T03:00:49.769Z,2.73
2019-03-23T03:03:20.091Z,2.97
2019-03-23T03:05:50.453Z,2.43
2019-03-23T03:08:20.847Z,3.00
2019-03-23T03:10:51.133Z,2.53
2019-03-23T03:13:21.501Z,2.90
2019-03-23T03:15:51.915Z,2.53
2019-03-23T03:18:22.226Z,2.77
2019-03-23T03:20:52.637Z,2.50
2019-03-23T03:23:23.033Z,2.57
2019-03-23T03:25:53.359Z,2.67
2019-03-23T03:28:23.718Z,2.40
2019-03-23T03:30:54.076Z,2.50
2019-03-23T03:33:24.404Z,2.67
2019-03-23T03:35:54.740Z,2.83
2019-03-23T03:38:25.101Z,2.77
2019-03-23T03:40:55.435Z,2.83
2019-03-23T03:43:25.769Z,3.10
2019-03-23T03:45:56.210Z,3.13
2019-03-23T03:48:26.647Z,2.90
2019-03-23T03:50:56.974Z,3.20
2019-03-23T03:53:27.347Z,3.37
2019-03-23T03:55:57.639Z,2.90
2019-03-23T03:58:28.021Z,2.83
2019-03-23T04:00:58.335Z,3.27
2019-03-23T04:03:28.705Z,3.20
2019-03-23T04:05:59.082Z,3.30
2019-03-23T04:08:29.401Z,3.43
2019-03-23T04:10:59.740Z,3.47
2019-03-23T04:13:30.081Z,3.00
2019-03-23T04:16:00.500Z,3.30
2019-03-23T04:18:30.825Z,3.13
2019-03-23T04:21:01.127Z,3.27
2019-03-23T04:23:31.350Z,3.30
2019-03-23T04:26:01.705Z,3.20
2019-03-23T04:28:31.978Z,3.50
2019-03-23T04:31:02.274Z,3.30
2019-03-23T04:33:32.533Z,3.50
2019-03-23T04:36:02.874Z,3.27
2019-03-23T04:38:33.110Z,3.60
2019-03-23T04:41:03.431Z,2.97
2019-03-23T04:43:33.749Z,3.33
2019-03-23T04:46:04.081Z,3.10
2019-03-23T04:48:34.395Z,3.20
2019-03-23T04:51:05.025Z,2.77
2019-03-23T04:53:35.479Z,2.40
2019-03-23T04:56:05.791Z,3.07
2019-03-23T04:58:36.170Z,2.50
2019-03-23T05:01:06.561Z,2.70
2019-03-23T05:03:37.016Z,2.83
2019-03-23T05:06:07.363Z,2.60
2019-03-23T05:08:37.761Z,2.57
2019-03-23T05:11:08.058Z,2.40
2019-03-23T05:13:38.505Z,2.30
2019-03-23T05:16:08.855Z,2.30
2019-03-23T05:18:39.218Z,2.40
2019-03-23T05:21:09.538Z,2.57
2019-03-23T05:23:41.481Z,2.37
2019-03-23T05:26:11.920Z,2.23
2019-03-23T05:28:42.233Z,2.60
2019-03-23T05:31:12.743Z,2.70
2019-03-23T05:33:43.032Z,2.30
2019-03-23T05:36:15.277Z,2.60
2019-03-23T05:38:47.281Z,2.50
2019-03-23T05:41:17.626Z,2.40
2019-03-23T05:43:48.018Z,2.50
2019-03-23T05:46:18.391Z,2.30
2019-03-23T05:48:48.775Z,2.43
2019-03-23T05:51:19.113Z,2.30
2019-03-23T05:53:49.474Z,2.30
2019-03-23T05:56:19.816Z,2.27
2019-03-23T05:58:50.170Z,2.30
2019-03-23T06:01:20.538Z,2.50
2019-03-23T06:03:50.902Z,2.00
2019-03-23T06:06:21.189Z,2.60
2019-03-23T06:08:55.274Z,2.33
2019-03-23T06:11:23.471Z,2.50
2019-03-23T06:13:53.838Z,2.17
2019-03-23T06:16:24.194Z,2.00
2019-03-23T06:18:54.498Z,1.70
2019-03-23T06:21:24.861Z,2.67
2019-03-23T06:23:55.177Z,2.50
2019-03-23T06:26:25.512Z,2.00
2019-03-23T06:28:55.859Z,2.63
2019-03-23T06:31:26.200Z,2.30
2019-03-23T06:33:56.505Z,2.43
2019-03-23T06:36:26.942Z,2.30
2019-03-23T06:39:05.068Z,2.20
2019-03-23T06:41:29.272Z,2.60
2019-03-23T06:43:59.585Z,2.40
2019-03-23T06:46:29.889Z,2.47
2019-03-23T06:49:00.275Z,2.57
2019-03-23T06:51:30.550Z,2.83
2019-03-23T06:54:00.909Z,2.50
2019-03-23T06:56:31.261Z,2.40
2019-03-23T06:59:01.599Z,2.03
2019-03-23T07:01:31.897Z,2.30
2019-03-23T07:04:02.300Z,2.40
2019-03-23T07:06:32.582Z,2.20
2019-03-23T07:09:03.052Z,2.00
2019-03-23T07:11:33.374Z,1.93
2019-03-23T07:14:03.674Z,1.80
2019-03-23T07:16:33.961Z,2.10
2019-03-23T07:19:04.278Z,2.20
2019-03-23T07:21:34.517Z,2.00
2019-03-23T07:24:04.876Z,2.03
2019-03-23T07:26:35.252Z,2.20
2019-03-23T07:29:05.562Z,2.60
2019-03-23T07:31:36.222Z,2.43
2019-03-23T07:34:06.677Z,2.60
2019-03-23T07:36:37.134Z,2.50
2019-03-23T07:39:08.584Z,2.40
2019-03-23T07:41:38.890Z,2.40
2019-03-23T07:44:09.254Z,2.50
2019-03-23T07:46:39.668Z,2.43
2019-03-23T07:49:10.019Z,2.40
2019-03-23T07:51:40.403Z,2.50
2019-03-23T07:54:10.802Z,2.50
2019-03-23T07:56:41.099Z,2.60
2019-03-23T07:59:11.457Z,2.57
2019-03-23T08:01:41.798Z,2.60
2019-03-23T08:04:12.171Z,2.57
2019-03-23T08:06:42.457Z,2.27
2019-03-23T08:09:20.430Z,2.57
2019-03-23T08:11:44.877Z,2.50
2019-03-23T08:14:15.325Z,2.90
2019-03-23T08:16:45.678Z,2.70
2019-03-23T08:19:16.020Z,2.60
2019-03-23T08:21:46.438Z,2.70
2019-03-23T08:24:16.720Z,2.70
2019-03-23T08:26:47.165Z,2.63
2019-03-23T08:29:17.553Z,2.97
2019-03-23T08:31:47.854Z,2.50
2019-03-23T08:34:18.258Z,2.90
2019-03-23T08:36:48.529Z,2.60
2019-03-23T08:39:18.881Z,2.60
2019-03-23T08:41:49.241Z,2.93
2019-03-23T08:44:19.741Z,3.00
2019-03-23T08:46:50.063Z,2.57
2019-03-23T08:49:20.505Z,2.93
2019-03-23T08:51:51.360Z,2.70
2019-03-23T08:54:21.691Z,2.50
2019-03-23T08:56:52.070Z,2.60
2019-03-23T08:59:22.315Z,2.40
2019-03-23T09:01:52.662Z,2.60
2019-03-23T09:04:22.991Z,2.80
2019-03-23T09:06:53.347Z,3.30
2019-03-23T09:09:23.646Z,3.23
2019-03-23T09:11:54.006Z,3.13
2019-03-23T09:14:24.418Z,3.13
2019-03-23T09:16:54.739Z,3.00
2019-03-23T09:19:25.082Z,2.87
2019-03-23T09:21:55.418Z,3.00
2019-03-23T09:24:25.647Z,3.10
2019-03-23T09:26:56.438Z,3.00
2019-03-23T09:29:26.718Z,3.40
2019-03-23T09:31:57.038Z,3.53
2019-03-23T09:34:27.264Z,3.03
2019-03-23T09:36:57.659Z,3.27
2019-03-23T09:39:27.918Z,3.00
2019-03-23T09:41:58.260Z,2.90
2019-03-23T09:44:28.623Z,3.70
2019-03-23T09:46:59.014Z,3.00
2019-03-23T09:49:29.401Z,3.30
2019-03-23T09:51:59.857Z,2.40
2019-03-23T09:54:30.269Z,2.60
2019-03-23T09:57:00.613Z,2.87
2019-03-23T09:59:30.883Z,2.60
2019-03-23T10:02:01.119Z,2.73
2019-03-23T10:04:31.499Z,2.63
2019-03-23T10:07:01.801Z,2.80
2019-03-23T10:09:32.186Z,2.63
2019-03-23T10:12:02.526Z,2.60
2019-03-23T10:14:32.852Z,3.00
2019-03-23T10:17:03.251Z,3.00
2019-03-23T10:19:33.571Z,3.00
2019-03-23T10:22:03.913Z,2.70
2019-03-23T10:24:34.596Z,2.70
2019-03-23T10:27:04.855Z,2.80
2019-03-23T10:29:35.195Z,2.80
2019-03-23T10:32:05.658Z,2.67
2019-03-23T10:34:35.960Z,2.70
2019-03-23T10:37:06.238Z,2.90
2019-03-23T10:39:36.590Z,3.00
2019-03-23T10:42:06.922Z,3.07
2019-03-23T10:44:37.272Z,3.20
2019-03-23T10:47:07.526Z,2.80
2019-03-23T10:49:37.933Z,2.87
2019-03-23T10:52:08.323Z,2.73
2019-03-23T10:54:38.773Z,2.33
2019-03-23T10:57:09.142Z,2.60
2019-03-23T10:59:39.481Z,2.97
2019-03-23T11:02:09.928Z,3.13
2019-03-23T11:04:40.334Z,3.20
2019-03-23T11:07:10.685Z,2.87
2019-03-23T11:09:41.008Z,2.90
2019-03-23T11:12:11.482Z,3.47
2019-03-23T11:14:41.831Z,3.10
2019-03-23T11:17:12.150Z,2.80
2019-03-23T11:19:43.918Z,2.67
2019-03-23T11:22:17.819Z,2.87
2019-03-23T11:24:48.174Z,2.97
2019-03-23T11:27:18.510Z,3.10
2019-03-23T11:29:48.847Z,3.10
2019-03-23T11:32:19.203Z,2.97
2019-03-23T11:34:49.536Z,3.33
2019-03-23T11:37:19.931Z,3.43
2019-03-23T11:39:50.264Z,2.97
2019-03-23T11:42:20.622Z,2.83
2019-03-23T11:44:52.564Z,2.87
2019-03-23T11:47:22.934Z,2.80
2019-03-23T11:49:53.427Z,2.73
2019-03-23T11:52:23.802Z,3.20
2019-03-23T11:54:54.169Z,2.97
2019-03-23T11:57:24.518Z,2.70
2019-03-23T11:59:54.826Z,2.83
2019-03-23T12:02:25.194Z,2.67
2019-03-23T12:04:55.525Z,3.00
2019-03-23T12:07:25.915Z,2.80
2019-03-23T12:09:56.264Z,3.10
2019-03-23T12:12:26.657Z,2.70
2019-03-23T12:14:56.967Z,2.80
2019-03-23T12:17:27.276Z,2.87
2019-03-23T12:19:57.571Z,2.70
2019-03-23T12:22:27.949Z,3.03
2019-03-23T12:24:58.295Z,3.13
2019-03-23T12:27:28.628Z,2.40
2019-03-23T12:30:06.735Z,2.40
2019-03-23T12:32:31.049Z,2.30
2019-03-23T12:35:01.449Z,2.60
2019-03-23T12:37:31.734Z,2.50
2019-03-23T12:40:02.139Z,2.30
2019-03-23T12:42:32.438Z,2.30
2019-03-23T12:45:02.882Z,2.43
2019-03-23T12:47:33.178Z,2.53
2019-03-23T12:50:03.545Z,2.23
2019-03-23T12:52:33.882Z,2.80
2019-03-23T12:55:04.260Z,2.53
2019-03-23T12:57:34.622Z,2.43
2019-03-23T13:00:06.683Z,2.47
2019-03-23T13:02:37.029Z,2.40
2019-03-23T13:05:07.977Z,2.70
2019-03-23T13:07:38.381Z,2.60
2019-03-23T13:10:09.374Z,2.43
2019-03-23T13:12:39.780Z,3.33
2019-03-23T13:15:11.055Z,2.83
2019-03-23T13:17:41.487Z,2.50
2019-03-23T13:20:11.822Z,2.80
2019-03-23T13:22:42.282Z,2.80
2019-03-23T13:25:12.886Z,2.37
2019-03-23T13:27:43.267Z,2.60
2019-03-23T13:30:13.854Z,2.60
2019-03-23T13:32:44.139Z,2.63
2019-03-23T13:35:14.463Z,2.77
2019-03-23T13:37:44.747Z,2.90
2019-03-23T13:40:15.314Z,3.70
2019-03-23T13:42:45.630Z,3.50
2019-03-23T13:45:16.130Z,3.00
2019-03-23T13:47:46.507Z,2.40
2019-03-23T13:50:24.786Z,2.97
2019-03-23T13:52:55.140Z,3.10
2019-03-23T13:55:27.418Z,2.70
2019-03-23T13:57:59.742Z,2.63
2019-03-23T14:00:30.121Z,2.67
2019-03-23T14:03:00.430Z,2.30
2019-03-23T14:05:30.865Z,2.27
2019-03-23T14:08:01.207Z,2.10
2019-03-23T14:10:31.586Z,2.27
2019-03-23T14:13:01.931Z,2.70
2019-03-23T14:15:32.237Z,2.30
2019-03-23T14:18:02.545Z,2.27
2019-03-23T14:20:32.924Z,2.23
2019-03-23T14:23:03.292Z,2.40
2019-03-23T14:25:33.670Z,1.93
2019-03-23T14:28:03.991Z,2.40
2019-03-23T14:30:34.461Z,2.10
2019-03-23T14:33:04.832Z,3.40
2019-03-23T14:35:35.225Z,2.27
2019-03-23T14:38:05.566Z,2.10
2019-03-23T14:40:35.881Z,2.50
2019-03-23T14:43:06.185Z,2.67
2019-03-23T14:45:37.048Z,2.30
2019-03-23T14:48:07.449Z,2.10
2019-03-23T14:50:37.772Z,2.00
2019-03-23T14:53:08.283Z,2.20
2019-03-23T14:55:38.609Z,2.10
2019-03-23T14:58:08.995Z,2.10
2019-03-23T15:00:39.395Z,2.23
2019-03-23T15:03:09.842Z,2.00
2019-03-23T15:05:40.158Z,2.20
2019-03-23T15:08:10.522Z,1.77
2019-03-23T15:10:40.877Z,2.03
2019-03-23T15:13:11.241Z,1.87
2019-03-23T15:15:41.997Z,1.90
2019-03-23T15:18:12.332Z,1.97
2019-03-23T15:20:42.786Z,2.10
2019-03-23T15:23:13.132Z,2.30
2019-03-23T15:25:43.457Z,2.30
2019-03-23T15:28:13.858Z,2.03
2019-03-23T15:30:44.251Z,2.10
2019-03-23T15:33:14.566Z,2.07
2019-03-23T15:35:44.914Z,2.07
2019-03-23T15:38:17.124Z,2.20
2019-03-23T15:40:47.482Z,2.00
2019-03-23T15:43:17.879Z,2.40
2019-03-23T15:45:48.235Z,2.87
2019-03-23T15:48:18.589Z,2.30
2019-03-23T15:50:48.885Z,2.50
2019-03-23T15:53:19.194Z,2.70
2019-03-23T15:55:49.519Z,2.93
2019-03-23T15:58:19.831Z,2.43
2019-03-23T16:00:50.145Z,3.20
2019-03-23T16:03:20.437Z,2.77
2019-03-23T16:05:52.611Z,3.17
2019-03-23T16:08:22.879Z,3.00
2019-03-23T16:10:53.265Z,4.97
2019-03-23T16:13:23.596Z,3.50
2019-03-23T16:15:54.019Z,3.00
2019-03-23T16:18:24.446Z,2.90
2019-03-23T16:20:54.815Z,2.70
2019-03-23T16:23:25.161Z,3.00
2019-03-23T16:25:55.969Z,2.80
2019-03-23T16:28:26.289Z,2.90
2019-03-23T16:30:56.619Z,3.07
2019-03-23T16:33:29.266Z,3.00
2019-03-23T16:36:03.613Z,2.90
2019-03-23T16:38:34.100Z,2.60
2019-03-23T16:41:04.462Z,2.77
2019-03-23T16:43:35.215Z,3.10
2019-03-23T16:46:05.494Z,2.77
2019-03-23T16:48:35.773Z,2.80
2019-03-23T16:51:06.170Z,2.80
2019-03-23T16:53:36.471Z,3.37
2019-03-23T16:56:06.787Z,3.07
2019-03-23T16:58:37.150Z,3.23
2019-03-23T17:01:07.451Z,3.23
2019-03-23T17:03:37.821Z,3.30
2019-03-23T17:06:08.190Z,3.40
2019-03-23T17:08:38.524Z,3.40
2019-03-23T17:11:08.882Z,3.10
2019-03-23T17:13:39.169Z,3.10
2019-03-23T17:16:09.494Z,3.40
2019-03-23T17:18:39.838Z,3.20
2019-03-23T17:21:10.227Z,3.20
2019-03-23T17:23:40.546Z,3.40
2019-03-23T17:26:10.872Z,4.27
2019-03-23T17:28:41.236Z,4.20
2019-03-23T17:31:11.482Z,4.30
2019-03-23T17:33:41.871Z,4.60
2019-03-23T17:36:12.226Z,4.57
2019-03-23T17:38:42.594Z,4.83
2019-03-23T17:41:12.835Z,4.87
2019-03-23T17:43:43.161Z,4.93
2019-03-23T17:46:13.492Z,4.97
2019-03-23T17:48:43.861Z,4.90
2019-03-23T17:51:14.221Z,5.30
2019-03-23T17:53:44.514Z,5.10
2019-03-23T17:56:14.894Z,5.80
2019-03-23T17:58:45.309Z,5.57
2019-03-23T18:01:19.622Z,6.17
2019-03-23T18:03:48.950Z,6.47
2019-03-23T18:06:19.360Z,5.70
2019-03-23T18:08:49.676Z,6.60
2019-03-23T18:11:20.010Z,9.20
2019-03-23T18:13:50.374Z,14.20
2019-03-23T18:16:20.746Z,18.77
2019-03-23T18:18:51.091Z,16.57
2019-03-23T18:21:21.582Z,10.90
2019-03-23T18:23:51.896Z,12.40
2019-03-23T18:26:22.262Z,10.67
2019-03-23T18:28:52.609Z,8.63
2019-03-23T18:31:22.937Z,7.43
2019-03-23T18:33:53.227Z,6.37
2019-03-23T18:36:23.597Z,6.40
2019-03-23T18:38:53.958Z,5.73
2019-03-23T18:41:24.296Z,5.77
2019-03-23T18:43:54.674Z,5.23
2019-03-23T18:46:25.025Z,5.60
2019-03-23T18:48:55.370Z,6.37
2019-03-23T18:51:25.679Z,5.40
2019-03-23T18:53:56.013Z,6.10
2019-03-23T18:56:26.321Z,7.50
2019-03-23T18:58:56.651Z,7.47
2019-03-23T19:01:26.968Z,8.10
2019-03-23T19:03:57.359Z,8.70
2019-03-23T19:06:27.732Z,9.43
2019-03-23T19:08:58.067Z,10.00
2019-03-23T19:11:28.441Z,11.00
2019-03-23T19:13:58.756Z,10.80
2019-03-23T19:16:29.141Z,13.08
2019-03-23T19:18:59.605Z,11.93
2019-03-23T19:21:29.879Z,11.20
2019-03-23T19:24:00.245Z,10.63
2019-03-23T19:26:30.558Z,11.20
2019-03-23T19:29:00.823Z,11.73
2019-03-23T19:31:31.207Z,11.07
2019-03-23T19:34:01.527Z,11.20
2019-03-23T19:36:32.342Z,11.60
2019-03-23T19:39:02.731Z,11.27
2019-03-23T19:41:33.120Z,11.47
2019-03-23T19:44:03.506Z,10.43
2019-03-23T19:46:33.830Z,10.67
2019-03-23T19:49:04.251Z,10.47
2019-03-23T19:51:34.606Z,12.40
2019-03-23T19:54:05.399Z,12.63
2019-03-23T19:56:35.710Z,12.90
2019-03-23T19:59:06.127Z,10.87
2019-03-23T20:01:36.433Z,11.13
2019-03-23T20:04:06.818Z,11.40
2019-03-23T20:06:37.127Z,10.57
2019-03-23T20:09:09.260Z,10.80
2019-03-23T20:11:39.590Z,10.27
2019-03-23T20:14:09.978Z,10.60
2019-03-23T20:16:40.290Z,10.40
2019-03-23T20:19:10.736Z,9.70
2019-03-23T20:21:41.111Z,8.73
2019-03-23T20:24:11.482Z,9.23
2019-03-23T20:26:41.870Z,9.83
2019-03-23T20:29:12.173Z,9.27
2019-03-23T20:31:42.508Z,8.10
2019-03-23T20:34:12.809Z,9.30
2019-03-23T20:36:43.190Z,9.27
2019-03-23T20:39:13.429Z,8.80
2019-03-23T20:41:43.741Z,9.17
2019-03-23T20:44:14.075Z,7.53
2019-03-23T20:46:44.661Z,8.43
2019-03-23T20:49:14.981Z,7.80
2019-03-23T20:51:46.199Z,7.73
2019-03-23T20:54:16.793Z,8.50
2019-03-23T20:56:47.142Z,9.10
2019-03-23T20:59:17.486Z,9.20
2019-03-23T21:01:47.880Z,10.13
2019-03-23T21:04:18.239Z,9.00
2019-03-23T21:06:48.621Z,9.00
2019-03-23T21:09:18.864Z,9.07
2019-03-23T21:11:49.173Z,8.87
2019-03-23T21:14:20.450Z,9.07
2019-03-23T21:16:51.130Z,8.87
2019-03-23T21:19:21.474Z,9.13
2019-03-23T21:21:52.305Z,9.33
2019-03-23T21:24:22.706Z,8.27
2019-03-23T21:26:52.974Z,9.03
2019-03-23T21:29:23.352Z,9.30
2019-03-23T21:31:53.589Z,8.73
2019-03-23T21:34:24.039Z,8.93
2019-03-23T21:36:54.313Z,7.67
2019-03-23T21:39:24.718Z,8.40
2019-03-23T21:41:55.093Z,8.97
2019-03-23T21:44:31.007Z,8.93
2019-03-23T21:46:57.550Z,8.77
2019-03-23T21:49:27.834Z,9.23
2019-03-23T21:51:58.138Z,9.93
2019-03-23T21:54:28.425Z,10.73
2019-03-23T21:56:58.788Z,10.07
2019-03-23T21:59:29.141Z,9.97
2019-03-23T22:01:59.532Z,10.27
2019-03-23T22:04:31.003Z,9.90
2019-03-23T22:07:01.435Z,10.00
2019-03-23T22:09:31.792Z,10.30
2019-03-23T22:12:02.278Z,10.00
2019-03-23T22:14:41.343Z,9.70
2019-03-23T22:17:05.813Z,9.53
2019-03-23T22:19:36.426Z,9.77
2019-03-23T22:22:06.869Z,9.47
2019-03-23T22:24:37.236Z,9.20
2019-03-23T22:27:07.575Z,10.67
2019-03-23T22:29:37.893Z,9.80
2019-03-23T22:32:08.204Z,9.37
2019-03-23T22:34:38.608Z,9.93
2019-03-23T22:37:08.906Z,9.80
2019-03-23T22:39:39.233Z,9.87
2019-03-23T22:42:09.546Z,10.77
2019-03-23T22:44:39.979Z,9.87
2019-03-23T22:47:10.325Z,9.30
2019-03-23T22:49:40.712Z,9.10
2019-03-23T22:52:11.007Z,9.67
2019-03-23T22:54:41.352Z,9.87
2019-03-23T22:57:11.715Z,10.20
2019-03-23T22:59:42.058Z,9.63
2019-03-23T23:02:12.397Z,9.57
2019-03-23T23:04:42.751Z,9.20
2019-03-23T23:07:13.135Z,9.13
2019-03-23T23:09:43.573Z,9.50
2019-03-23T23:12:13.845Z,9.30
2019-03-23T23:14:44.166Z,9.97
2019-03-23T23:17:14.566Z,9.93
2019-03-23T23:19:44.889Z,9.87
2019-03-23T23:22:15.276Z,9.93
2019-03-23T23:24:45.667Z,9.90
2019-03-23T23:27:16.011Z,9.13
2019-03-23T23:29:46.357Z,10.20
2019-03-23T23:32:16.683Z,10.80
2019-03-23T23:34:46.999Z,10.03
2019-03-23T23:37:17.402Z,9.97
2019-03-23T23:39:47.697Z,9.87
2019-03-23T23:42:18.576Z,10.47
2019-03-23T23:44:48.954Z,9.53
2019-03-23T23:47:19.385Z,10.23
2019-03-23T23:49:49.744Z,10.30
2019-03-23T23:52:20.111Z,10.20
2019-03-23T23:54:50.446Z,10.70
2019-03-23T23:57:20.893Z,11.07
2019-03-23T23:59:51.283Z,11.07
